createdAt,value
2023-01-07T00:04:06.480Z,97462.94
2023-01-07T00:09:00.980Z,97463.94
2023-01-07T00:13:57.762Z,97459.50
2023-01-07T00:18:53.292Z,97455.38
2023-01-07T00:23:49.335Z,97451.81
2023-01-07T00:28:45.631Z,97453.84
2023-01-07T00:33:46.934Z,97455.94
2023-01-07T00:38:40.424Z,97449.63
2023-01-07T00:43:35.207Z,97443.53
2023-01-07T00:48:28.792Z,97430.47
2023-01-07T00:53:22.670Z,97429.72
2023-01-07T00:58:18.515Z,97437.47
2023-01-07T01:03:14.168Z,97429.63
2023-01-07T01:08:08.288Z,97421.06
2023-01-07T01:13:02.461Z,97422.00
2023-01-07T01:17:55.903Z,97420.22
2023-01-07T01:22:50.669Z,97408.94
2023-01-07T01:27:44.801Z,97413.59
2023-01-07T01:32:38.188Z,97407.53
2023-01-07T01:37:31.613Z,97416.31
2023-01-07T01:42:27.019Z,97413.97
2023-01-07T01:47:33.155Z,97412.13
2023-01-07T01:52:32.968Z,97406.53
2023-01-07T01:57:32.164Z,97399.44
2023-01-07T02:02:33.985Z,97402.91
2023-01-07T02:07:27.724Z,97400.56
2023-01-07T02:12:38.142Z,97403.34
2023-01-07T02:17:52.800Z,97395.78
2023-01-07T02:23:54.205Z,97385.91
2023-01-07T02:29:54.559Z,97385.81
2023-01-07T02:35:06.289Z,97395.22
2023-01-07T02:40:10.818Z,97386.00
2023-01-07T02:45:16.968Z,97394.00
2023-01-07T02:50:12.065Z,97389.56
2023-01-07T02:55:12.183Z,97393.91
2023-01-07T03:00:24.023Z,97385.91
2023-01-07T03:05:49.874Z,97388.13
2023-01-07T03:10:51.882Z,97381.22
2023-01-07T03:15:54.456Z,97378.13
2023-01-07T03:20:55.516Z,97366.69
2023-01-07T03:25:53.393Z,97366.44
2023-01-07T03:30:49.238Z,97355.81
2023-01-07T03:35:46.584Z,97349.66
2023-01-07T03:40:41.448Z,97348.34
2023-01-07T03:45:35.085Z,97337.34
2023-01-07T03:50:28.558Z,97338.28
2023-01-07T03:55:22.284Z,97330.81
2023-01-07T04:00:17.846Z,97323.50
2023-01-07T04:05:11.916Z,97314.63
2023-01-07T04:10:06.624Z,97314.72
2023-01-07T04:15:00.128Z,97309.88
2023-01-07T04:19:54.996Z,97296.47
2023-01-07T04:24:48.499Z,97292.56
2023-01-07T12:35:15.052Z,97029.44
2023-01-07T12:40:28.224Z,97010.22
2023-01-07T12:45:32.414Z,97009.09
2023-01-07T12:50:30.708Z,97001.44
2023-01-07T12:55:33.847Z,96986.81
2023-01-07T13:00:32.773Z,96974.59
2023-01-07T13:05:37.434Z,96982.25
2023-01-07T13:10:39.517Z,96971.16
2023-01-07T13:15:36.382Z,96956.84
2023-01-07T13:20:51.287Z,96947.75
2023-01-07T13:26:08.328Z,96951.63
2023-01-07T13:31:29.268Z,96932.56
2023-01-07T13:36:40.025Z,96935.81
2023-01-07T13:42:03.068Z,96939.16
2023-01-07T13:46:57.538Z,96937.06
2023-01-07T13:51:51.006Z,96931.19
2023-01-07T13:56:45.746Z,96921.59
2023-01-07T14:02:18.854Z,96917.00
2023-01-07T14:07:13.502Z,96914.00
2023-01-07T14:13:04.024Z,96927.03
2023-01-07T14:18:23.127Z,96918.91
2023-01-07T14:23:30.792Z,96897.56
2023-01-07T14:29:09.332Z,96894.63
2023-01-07T14:34:09.301Z,96895.88
2023-01-07T14:39:02.679Z,96886.28
2023-01-07T23:10:38.935Z,96673.16
